Amendola, Amendola Airport (LIBA)

NameAmendola Airport
CityAmendola
CountryItaly
ICAOLIBA
IATA
Altitude56 m
CoordinatesGoogle Map
Live Air TrafficLiveATC.net
METARLIBA 191955Z 06004KT CAVOK 24/24 Q1017 RMK SKC VIS MIN 9999 WIND THR11 04003KT WIND THR29 /////KT BLU
2019-08-19 19:55:00 Wind: Northeast (60°) 2.06 m/s - Visibility: > 10000 m - Weather: CAVOK - Temperature: 24 °C - Dew point: 24 °C - Humidity: 100% - Pressure: 1017 hPa

Sorry, no flights used the airport in this database.